createdAt,value
2023-05-18T00:00:48.333Z,20.90
2023-05-18T00:03:15.684Z,26.92
2023-05-18T00:05:44.261Z,28.20
2023-05-18T00:08:14.103Z,22.33
2023-05-18T00:10:43.598Z,25.98
2023-05-18T00:13:13.242Z,25.27
2023-05-18T00:15:39.917Z,22.17
2023-05-18T00:18:07.033Z,22.48
2023-05-18T00:20:36.574Z,25.10
2023-05-18T00:23:06.380Z,28.58
2023-05-18T00:25:33.039Z,23.98
2023-05-18T00:27:59.704Z,23.65
2023-05-18T00:30:26.588Z,25.83
2023-05-18T00:32:55.265Z,26.63
2023-05-18T00:35:25.012Z,30.48
2023-05-18T00:37:56.665Z,26.52
2023-05-18T00:43:18.740Z,25.65
2023-05-18T00:45:47.772Z,24.52
2023-05-18T00:48:14.635Z,28.02
2023-05-18T00:50:44.998Z,22.25
2023-05-18T00:53:11.919Z,26.92
2023-05-18T00:55:38.737Z,21.13
2023-05-18T00:58:05.737Z,27.70
2023-05-18T01:00:34.026Z,23.38
2023-05-18T01:03:02.343Z,26.50
2023-05-18T01:05:29.251Z,21.65
2023-05-18T01:07:56.741Z,22.35
2023-05-18T01:10:26.038Z,22.83
2023-05-18T01:13:06.916Z,22.55
2023-05-18T01:15:42.155Z,23.13
2023-05-18T01:18:25.951Z,20.02
2023-05-18T01:20:57.664Z,18.58
2023-05-18T01:23:36.712Z,22.08
2023-05-18T01:26:30.559Z,20.17
2023-05-18T01:29:00.490Z,24.10
2023-05-18T01:31:27.882Z,25.55
2023-05-18T01:33:54.900Z,22.63
2023-05-18T01:36:21.763Z,22.58
2023-05-18T01:38:51.634Z,20.52
2023-05-18T01:41:25.814Z,23.20
2023-05-18T01:46:52.101Z,20.08
2023-05-18T01:49:27.487Z,22.35
2023-05-18T01:51:56.678Z,21.40
2023-05-18T01:54:24.915Z,21.30
2023-05-18T01:56:54.334Z,21.25
2023-05-18T01:59:22.252Z,22.15
2023-05-18T02:01:49.007Z,26.13
2023-05-18T02:04:15.773Z,25.40
2023-05-18T02:06:42.647Z,22.95
2023-05-18T02:09:12.402Z,20.73
2023-05-18T02:11:39.197Z,29.30
2023-05-18T02:14:05.793Z,24.92
2023-05-18T02:16:32.709Z,26.85
2023-05-18T02:19:00.411Z,25.75
2023-05-18T02:21:27.085Z,22.88
2023-05-18T02:23:53.787Z,23.73
2023-05-18T02:26:20.974Z,21.45
2023-05-18T02:28:47.903Z,22.98
2023-05-18T02:31:14.546Z,25.63
2023-05-18T02:33:47.561Z,25.65
2023-05-18T02:36:17.067Z,26.30
2023-05-18T02:53:27.927Z,27.30
2023-05-18T02:56:05.798Z,27.25
2023-05-18T02:58:33.287Z,31.95
2023-05-18T03:01:03.162Z,29.77
2023-05-18T03:03:32.983Z,27.20
2023-05-18T03:06:03.476Z,24.02
2023-05-18T03:08:31.662Z,28.15
2023-05-18T03:10:58.776Z,26.15
2023-05-18T03:13:26.228Z,24.80
2023-05-18T03:15:55.643Z,26.35
2023-05-18T03:18:24.887Z,24.05
2023-05-18T03:20:52.331Z,22.70
2023-05-18T03:23:23.060Z,28.98
2023-05-18T03:25:53.778Z,36.35
2023-05-18T03:28:21.361Z,28.13
2023-05-18T03:30:48.095Z,29.30
2023-05-18T03:33:14.835Z,25.02
2023-05-18T03:35:41.703Z,33.00
2023-05-18T03:38:08.332Z,33.08
2023-05-18T03:40:35.041Z,39.67
2023-05-18T03:43:01.794Z,28.60
2023-05-18T03:45:29.045Z,32.10
2023-05-18T03:47:58.100Z,39.75
2023-05-18T03:50:24.885Z,43.60
2023-05-18T03:52:55.929Z,35.53
2023-05-18T03:55:23.526Z,27.83
2023-05-18T03:57:50.142Z,28.97
2023-05-18T04:00:17.153Z,25.08
2023-05-18T05:14:38.712Z,24.20
2023-05-18T05:58:59.505Z,33.03
2023-05-18T06:01:28.586Z,25.70
2023-05-18T06:03:59.239Z,37.38
2023-05-18T06:06:25.971Z,53.65
2023-05-18T06:31:04.546Z,41.80
2023-05-18T06:33:31.533Z,19.85
2023-05-18T06:35:58.318Z,19.63
2023-05-18T06:38:25.250Z,21.00
2023-05-18T06:40:51.965Z,25.83
2023-05-18T06:43:18.623Z,71.10
2023-05-18T06:45:46.911Z,56.15
2023-05-18T06:48:13.591Z,68.03
2023-05-18T06:50:40.347Z,49.08
2023-05-18T06:53:06.959Z,25.27
2023-05-18T06:55:33.750Z,48.22
2023-05-18T06:58:00.411Z,33.08
2023-05-18T07:00:27.149Z,30.40
2023-05-18T07:02:53.926Z,25.83
2023-05-18T07:05:20.628Z,48.47
2023-05-18T07:07:47.871Z,49.00
2023-05-18T07:10:14.763Z,27.25
2023-05-18T07:12:41.553Z,34.42
2023-05-18T07:15:08.468Z,38.00
2023-05-18T07:17:35.189Z,38.88
2023-05-18T07:20:02.004Z,20.80
2023-05-18T07:22:28.621Z,20.08
2023-05-18T07:24:55.197Z,37.92
2023-05-18T07:27:21.895Z,39.15
2023-05-18T07:29:48.602Z,21.73
2023-05-18T07:32:15.289Z,33.70
2023-05-18T07:34:43.659Z,18.10
2023-05-18T07:37:10.550Z,16.83
2023-05-18T07:39:37.207Z,31.70
2023-05-18T07:42:04.119Z,25.92
2023-05-18T07:44:31.745Z,23.27
2023-05-18T07:46:58.483Z,25.20
2023-05-18T07:49:25.397Z,13.77
2023-05-18T07:51:55.550Z,25.35
2023-05-18T07:54:22.307Z,20.90
2023-05-18T07:56:49.205Z,29.95
2023-05-18T07:59:16.148Z,15.68
2023-05-18T08:01:45.081Z,14.50
2023-05-18T08:04:12.073Z,18.40
2023-05-18T08:06:38.965Z,25.88
2023-05-18T08:09:08.209Z,22.23
2023-05-18T08:11:37.740Z,17.05
2023-05-18T08:14:04.435Z,16.52
2023-05-18T08:16:34.760Z,14.25
2023-05-18T08:19:03.940Z,20.13
2023-05-18T08:21:30.629Z,14.23
2023-05-18T08:23:57.453Z,17.02
2023-05-18T08:26:24.624Z,14.50
2023-05-18T08:28:51.336Z,9.00
2023-05-18T08:31:21.831Z,10.90
2023-05-18T08:33:48.883Z,10.02
2023-05-18T08:36:17.215Z,21.17
2023-05-18T08:38:46.074Z,30.50
2023-05-18T08:41:24.779Z,12.32
2023-05-18T08:44:02.050Z,9.57
2023-05-18T08:46:39.741Z,27.83
2023-05-18T08:49:07.499Z,16.38
2023-05-18T08:51:35.848Z,15.27
2023-05-18T08:54:06.000Z,30.83
2023-05-18T08:56:35.946Z,12.35
2023-05-18T08:59:08.209Z,20.95
2023-05-18T09:01:35.388Z,16.25
2023-05-18T09:04:02.671Z,9.68
2023-05-18T09:06:29.541Z,15.50
2023-05-18T09:08:59.700Z,9.57
2023-05-18T09:11:28.084Z,11.70
2023-05-18T09:13:55.277Z,10.18
2023-05-18T09:16:22.135Z,7.93
2023-05-18T09:18:48.994Z,11.70
2023-05-18T09:21:15.725Z,6.20
2023-05-18T09:23:43.541Z,11.70
2023-05-18T09:26:11.447Z,6.82
2023-05-18T09:28:40.027Z,13.45
2023-05-18T09:31:17.857Z,4.15
2023-05-18T09:33:51.663Z,4.22
2023-05-18T09:38:54.863Z,9.48
2023-05-18T09:41:30.506Z,9.07
2023-05-18T09:43:57.222Z,17.75
2023-05-18T09:46:25.321Z,16.17
2023-05-18T09:48:55.065Z,15.68
2023-05-18T09:51:25.634Z,2.22
2023-05-18T09:53:58.071Z,13.05
2023-05-18T09:56:27.009Z,20.77
2023-05-18T09:58:54.038Z,20.83
2023-05-18T10:01:23.516Z,16.38
2023-05-18T10:03:50.401Z,10.75
2023-05-18T10:06:21.449Z,22.60
2023-05-18T10:08:48.525Z,7.45
2023-05-18T10:11:19.508Z,7.53
2023-05-18T10:13:46.988Z,6.78
2023-05-18T10:16:16.038Z,11.15
2023-05-18T10:18:43.134Z,9.02
2023-05-18T10:21:12.667Z,13.18
2023-05-18T10:23:40.898Z,12.82
2023-05-18T10:26:10.406Z,8.68
2023-05-18T10:28:51.923Z,7.80
2023-05-18T10:31:22.648Z,9.65
2023-05-18T10:33:52.205Z,4.57
2023-05-18T10:36:19.596Z,12.02
2023-05-18T10:38:47.100Z,5.75
2023-05-18T10:41:15.276Z,7.97
2023-05-18T10:43:42.908Z,7.53
2023-05-18T10:46:09.996Z,15.90
2023-05-18T10:48:42.778Z,13.25
2023-05-18T10:51:14.963Z,5.28
2023-05-18T10:53:44.005Z,12.45
2023-05-18T10:56:10.724Z,3.10
2023-05-18T10:58:38.702Z,11.73
2023-05-18T11:01:09.363Z,9.60
2023-05-18T11:03:39.897Z,6.63
2023-05-18T11:06:15.002Z,7.57
2023-05-18T11:08:49.671Z,7.97
2023-05-18T11:11:19.263Z,10.85
2023-05-18T11:13:51.639Z,15.35
2023-05-18T11:16:19.495Z,6.07
2023-05-18T11:18:51.366Z,10.95
2023-05-18T11:21:49.691Z,9.07
2023-05-18T11:24:32.666Z,8.00
2023-05-18T11:27:03.815Z,7.43
2023-05-18T11:29:42.190Z,6.93
2023-05-18T11:32:32.704Z,6.20
2023-05-18T11:35:02.694Z,23.30
2023-05-18T11:37:41.396Z,10.68
2023-05-18T11:40:13.865Z,10.90
2023-05-18T11:42:40.750Z,8.10
2023-05-18T11:45:12.726Z,5.35
2023-05-18T11:47:41.344Z,11.80
2023-05-18T11:50:10.450Z,8.55
2023-05-18T11:52:47.848Z,6.50
2023-05-18T11:55:16.400Z,6.93
2023-05-18T11:57:45.568Z,7.18
2023-05-18T12:00:13.100Z,9.50
2023-05-18T12:02:44.973Z,7.85
2023-05-18T12:05:12.831Z,5.75
2023-05-18T12:07:41.025Z,7.38
2023-05-18T12:10:12.629Z,17.20
2023-05-18T12:12:40.115Z,8.00
2023-05-18T12:15:09.110Z,5.90
2023-05-18T12:17:49.130Z,13.55
2023-05-18T12:20:18.585Z,5.18
2023-05-18T12:22:53.376Z,6.82
2023-05-18T12:25:22.086Z,8.07
2023-05-18T12:27:49.891Z,38.30
2023-05-18T12:30:19.034Z,14.25
2023-05-18T12:32:48.126Z,7.53
2023-05-18T12:35:15.235Z,6.07
2023-05-18T12:37:46.533Z,8.68
2023-05-18T12:40:18.518Z,10.68
2023-05-18T12:43:03.264Z,6.45
2023-05-18T12:45:32.430Z,18.40
2023-05-18T12:48:06.031Z,15.80
2023-05-18T12:50:33.002Z,14.40
2023-05-18T12:53:01.993Z,16.77
2023-05-18T12:55:50.636Z,22.08
2023-05-18T12:58:19.499Z,14.43
2023-05-18T13:00:49.677Z,11.68
2023-05-18T13:03:18.268Z,11.70
2023-05-18T13:05:46.773Z,17.55
2023-05-18T13:08:22.132Z,7.70
2023-05-18T13:10:58.157Z,7.55
2023-05-18T13:13:33.071Z,6.38
2023-05-18T13:16:00.516Z,7.60
2023-05-18T13:18:28.443Z,6.65
2023-05-18T13:20:58.219Z,7.72
2023-05-18T13:23:29.059Z,8.73
2023-05-18T13:25:58.696Z,10.90
2023-05-18T13:28:26.962Z,12.00
2023-05-18T13:30:53.644Z,12.23
2023-05-18T13:33:20.384Z,16.52
2023-05-18T13:35:48.582Z,8.75
2023-05-18T13:38:16.363Z,7.10
2023-05-18T13:40:43.106Z,13.50
2023-05-18T13:43:11.999Z,6.47
2023-05-18T13:45:41.104Z,20.13
2023-05-18T13:48:09.902Z,7.50
2023-05-18T13:50:37.685Z,8.80
2023-05-18T13:53:04.574Z,18.20
2023-05-18T13:55:31.730Z,10.43
2023-05-18T13:57:58.609Z,12.55
2023-05-18T14:00:25.540Z,16.52
2023-05-18T14:02:53.384Z,21.75
2023-05-18T14:05:20.436Z,15.90
2023-05-18T14:07:47.167Z,11.43
2023-05-18T14:10:13.883Z,17.35
2023-05-18T14:12:42.719Z,15.43
2023-05-18T14:15:10.840Z,14.32
2023-05-18T14:17:37.777Z,11.60
2023-05-18T14:20:08.336Z,21.48
2023-05-18T14:22:34.986Z,21.48
2023-05-18T14:25:01.691Z,16.55
2023-05-18T14:27:29.187Z,24.00
2023-05-18T14:29:56.370Z,18.52
2023-05-18T14:32:23.415Z,10.88
2023-05-18T14:34:56.023Z,26.33
2023-05-18T14:37:22.723Z,23.95
2023-05-18T14:39:49.536Z,15.43
2023-05-18T14:42:16.389Z,8.70
2023-05-18T14:44:43.143Z,22.48
2023-05-18T14:47:10.699Z,16.00
2023-05-18T14:49:37.845Z,18.60
2023-05-18T14:52:04.822Z,16.20
2023-05-18T14:54:34.391Z,24.05
2023-05-18T14:57:01.452Z,10.48
2023-05-18T14:59:28.206Z,14.02
2023-05-18T15:01:54.944Z,14.30
2023-05-18T15:04:22.315Z,21.55
2023-05-18T15:06:49.886Z,26.60
2023-05-18T15:09:17.426Z,17.17
2023-05-18T15:11:44.335Z,17.85
2023-05-18T15:14:11.211Z,12.45
2023-05-18T15:16:38.957Z,13.38
2023-05-18T15:19:06.129Z,15.80
2023-05-18T15:21:32.905Z,20.50
2023-05-18T15:23:59.559Z,8.25
2023-05-18T15:26:27.013Z,12.45
2023-05-18T15:28:53.789Z,22.05
2023-05-18T15:31:20.738Z,19.23
2023-05-18T15:33:47.604Z,17.88
2023-05-18T15:36:14.398Z,13.30
2023-05-18T15:38:41.222Z,17.48
2023-05-18T15:41:08.023Z,18.73
2023-05-18T15:43:36.682Z,12.70
2023-05-18T15:46:03.664Z,17.50
2023-05-18T15:48:30.462Z,20.33
2023-05-18T15:50:57.204Z,9.55
2023-05-18T15:53:23.910Z,17.15
2023-05-18T15:55:51.038Z,21.85
2023-05-18T15:58:17.794Z,10.77
2023-05-18T16:00:44.810Z,10.73
2023-05-18T16:03:12.540Z,15.65
2023-05-18T16:05:39.755Z,12.63
2023-05-18T16:08:06.753Z,19.02
2023-05-18T16:10:33.728Z,10.85
2023-05-18T16:13:05.907Z,18.65
2023-05-18T16:15:34.227Z,19.30
2023-05-18T16:18:01.745Z,16.83
2023-05-18T16:20:28.898Z,19.80
2023-05-18T16:22:55.771Z,19.73
2023-05-18T16:25:22.620Z,19.73
2023-05-18T16:27:49.373Z,16.48
2023-05-18T16:30:16.073Z,26.80
2023-05-18T16:32:43.990Z,22.30
2023-05-18T16:35:13.416Z,17.25
2023-05-18T16:37:40.049Z,14.77
2023-05-18T16:40:08.251Z,12.45
2023-05-18T16:42:35.167Z,23.63
2023-05-18T16:45:01.959Z,10.48
2023-05-18T16:47:28.725Z,19.65
2023-05-18T16:49:55.675Z,11.55
2023-05-18T16:52:22.382Z,16.23
2023-05-18T16:54:49.014Z,11.68
2023-05-18T16:57:15.793Z,22.85
2023-05-18T16:59:42.688Z,15.65
2023-05-18T17:02:16.302Z,14.88
2023-05-18T17:04:44.896Z,15.02
2023-05-18T17:07:12.424Z,27.50
2023-05-18T17:09:41.711Z,16.83
2023-05-18T17:12:12.134Z,11.70
2023-05-18T17:14:39.117Z,14.20
2023-05-18T17:17:07.105Z,10.07
2023-05-18T17:19:35.290Z,12.75
2023-05-18T17:22:03.115Z,17.83
2023-05-18T17:24:29.880Z,15.30
2023-05-18T17:26:56.516Z,15.20
2023-05-18T17:29:23.411Z,14.80
2023-05-18T17:31:50.263Z,12.63
2023-05-18T17:34:16.911Z,11.70
2023-05-18T17:36:44.499Z,9.10
2023-05-18T17:39:11.233Z,11.20
2023-05-18T17:41:37.926Z,9.52
2023-05-18T17:44:04.805Z,12.45
2023-05-18T17:46:31.565Z,9.27
2023-05-18T17:48:58.353Z,17.42
2023-05-18T17:51:25.126Z,22.25
2023-05-18T17:53:51.932Z,14.15
2023-05-18T17:56:18.763Z,11.55
2023-05-18T17:58:45.927Z,10.43
2023-05-18T18:01:12.612Z,13.40
2023-05-18T18:03:39.514Z,10.15
2023-05-18T18:06:06.778Z,10.05
2023-05-18T18:08:34.022Z,10.88
2023-05-18T18:11:00.856Z,18.83
2023-05-18T18:13:27.724Z,9.43
2023-05-18T18:15:54.483Z,9.73
2023-05-18T18:18:21.597Z,11.43
2023-05-18T18:20:48.311Z,9.05
2023-05-18T18:23:15.787Z,11.63
2023-05-18T18:25:43.588Z,17.05
2023-05-18T18:28:14.696Z,15.68
2023-05-18T18:30:44.425Z,8.30
2023-05-18T18:33:17.048Z,10.10
2023-05-18T18:35:43.805Z,11.35
2023-05-18T18:38:12.959Z,15.10
2023-05-18T18:40:39.871Z,14.27
2023-05-18T18:43:07.394Z,26.40
2023-05-18T18:45:34.158Z,15.18
2023-05-18T18:48:01.513Z,12.73
2023-05-18T18:50:28.474Z,15.23
2023-05-18T18:52:55.422Z,25.17
2023-05-18T18:55:24.306Z,15.73
2023-05-18T18:57:52.963Z,12.68
2023-05-18T19:00:21.329Z,23.95
2023-05-18T19:02:48.158Z,8.85
2023-05-18T19:05:21.499Z,12.63
2023-05-18T19:07:49.417Z,25.83
2023-05-18T19:10:16.654Z,9.77
2023-05-18T19:12:43.874Z,12.40
2023-05-18T19:15:13.481Z,22.50
2023-05-18T19:17:45.972Z,18.77
2023-05-18T19:20:13.093Z,12.60
2023-05-18T19:22:40.401Z,11.07
2023-05-18T19:25:07.360Z,15.75
2023-05-18T19:27:34.138Z,12.98
2023-05-18T19:30:04.018Z,15.13
2023-05-18T19:32:31.122Z,11.75
2023-05-18T19:34:57.838Z,19.65
2023-05-18T19:37:24.635Z,14.95
2023-05-18T19:39:51.318Z,18.40
2023-05-18T19:42:17.988Z,14.80
2023-05-18T19:44:44.678Z,9.20
2023-05-18T19:47:11.750Z,11.25
2023-05-18T19:49:38.394Z,11.93
2023-05-18T19:52:08.344Z,14.50
2023-05-18T19:54:38.428Z,11.40
2023-05-18T19:57:05.691Z,11.90
2023-05-18T19:59:32.321Z,12.10
2023-05-18T20:02:00.851Z,10.77
2023-05-18T20:04:30.274Z,13.32
2023-05-18T20:06:57.766Z,13.77
2023-05-18T20:09:24.479Z,13.13
2023-05-18T20:11:51.301Z,16.15
2023-05-18T20:14:18.038Z,12.45
2023-05-18T20:16:44.818Z,14.48
2023-05-18T20:19:14.060Z,19.80
2023-05-18T20:21:41.310Z,14.60
2023-05-18T20:24:08.127Z,14.20
2023-05-18T20:26:34.764Z,16.73
2023-05-18T20:29:01.403Z,14.90
2023-05-18T20:31:28.192Z,10.25
2023-05-18T20:33:57.636Z,15.70
2023-05-18T20:36:25.393Z,12.55
2023-05-18T20:38:53.403Z,13.60
2023-05-18T20:41:21.113Z,11.52
2023-05-18T20:43:50.306Z,15.05
2023-05-18T20:46:17.600Z,13.82
2023-05-18T20:48:44.827Z,11.45
2023-05-18T20:51:17.851Z,13.35
2023-05-18T20:56:12.873Z,21.63
2023-05-18T20:58:42.614Z,19.48
2023-05-18T21:01:10.932Z,16.52
2023-05-18T21:03:38.646Z,20.98
2023-05-18T21:06:05.607Z,12.73
2023-05-18T21:08:32.536Z,14.93
2023-05-18T21:10:59.316Z,12.32
2023-05-18T21:13:26.250Z,15.65
2023-05-18T21:15:52.864Z,14.10
2023-05-18T21:18:19.483Z,14.70
2023-05-18T21:20:46.176Z,13.27
2023-05-18T21:23:12.759Z,20.52
2023-05-18T21:25:39.730Z,19.50
2023-05-18T21:28:06.599Z,14.98
2023-05-18T21:30:33.521Z,17.00
2023-05-18T21:33:01.077Z,21.30
2023-05-18T21:35:28.043Z,16.42
2023-05-18T21:37:54.818Z,18.60
2023-05-18T21:40:21.468Z,18.00
2023-05-18T21:42:48.295Z,13.25
2023-05-18T21:45:15.042Z,13.13
2023-05-18T21:47:41.754Z,15.95
2023-05-18T21:50:08.782Z,13.07
2023-05-18T21:52:35.486Z,14.32
2023-05-18T21:55:02.154Z,14.55
2023-05-18T21:57:28.782Z,19.13
2023-05-18T21:59:55.376Z,19.60
2023-05-18T22:02:22.002Z,13.82
2023-05-18T22:04:48.690Z,24.27
2023-05-18T22:07:15.538Z,13.38
2023-05-18T22:09:42.262Z,17.38
2023-05-18T22:12:09.054Z,19.65
2023-05-18T22:14:35.934Z,14.00
2023-05-18T22:17:03.174Z,14.30
2023-05-18T22:19:29.927Z,13.32
2023-05-18T22:21:56.595Z,15.85
2023-05-18T22:24:23.293Z,16.42
2023-05-18T22:26:49.861Z,13.32
2023-05-18T22:29:16.577Z,27.92
2023-05-18T22:31:43.213Z,17.23
2023-05-18T22:34:09.846Z,12.95
2023-05-18T22:36:36.849Z,15.63
2023-05-18T22:39:04.407Z,16.85
2023-05-18T22:41:31.029Z,20.25
2023-05-18T22:43:57.802Z,13.82
2023-05-18T22:46:24.474Z,14.82
2023-05-18T22:48:51.174Z,42.20
2023-05-18T22:51:18.814Z,37.88
2023-05-18T22:53:45.612Z,25.90
2023-05-18T22:56:12.251Z,14.63
2023-05-18T22:58:38.884Z,17.65
2023-05-18T23:01:06.192Z,15.95
2023-05-18T23:03:32.858Z,19.58
2023-05-18T23:06:03.032Z,18.63
2023-05-18T23:08:30.526Z,21.88
2023-05-18T23:11:01.507Z,25.90
2023-05-18T23:13:31.035Z,15.90
2023-05-18T23:16:00.974Z,17.83
2023-05-18T23:18:28.173Z,25.42
2023-05-18T23:20:55.836Z,13.73
2023-05-18T23:23:26.180Z,17.40
2023-05-18T23:25:52.858Z,12.55
2023-05-18T23:28:19.473Z,16.75
2023-05-18T23:30:46.084Z,15.57
2023-05-18T23:33:14.856Z,14.90
2023-05-18T23:35:43.015Z,18.85
2023-05-18T23:38:10.722Z,14.93
2023-05-18T23:40:39.300Z,16.00
2023-05-18T23:43:06.176Z,14.88
2023-05-18T23:45:33.264Z,16.33
2023-05-18T23:48:00.271Z,19.55
2023-05-18T23:50:27.073Z,19.50
2023-05-18T23:52:54.340Z,16.90
2023-05-18T23:55:25.740Z,15.27
2023-05-18T23:57:52.825Z,15.15
